sensor_id;sensor_type;location;lat;lon;timestamp;temperature;humidity
702;DHT22;334;48.808;9.222;2022-12-07T00:00:47;7.70;3.30
702;DHT22;334;48.808;9.222;2022-12-07T00:01:49;7.70;3.30
702;DHT22;334;48.808;9.222;2022-12-07T00:02:51;7.60;3.00
702;DHT22;334;48.808;9.222;2022-12-07T00:03:54;7.60;3.70
702;DHT22;334;48.808;9.222;2022-12-07T00:05:02;7.50;4.20
702;DHT22;334;48.808;9.222;2022-12-07T00:06:05;7.60;4.20
702;DHT22;334;48.808;9.222;2022-12-07T00:07:07;7.60;4.10
702;DHT22;334;48.808;9.222;2022-12-07T00:08:09;7.60;4.20
702;DHT22;334;48.808;9.222;2022-12-07T00:09:13;7.60;3.60
702;DHT22;334;48.808;9.222;2022-12-07T00:10:15;7.60;3.80
702;DHT22;334;48.808;9.222;2022-12-07T00:11:20;7.60;3.70
702;DHT22;334;48.808;9.222;2022-12-07T00:12:22;7.60;3.80
702;DHT22;334;48.808;9.222;2022-12-07T00:13:23;7.60;3.70
702;DHT22;334;48.808;9.222;2022-12-07T00:14:25;7.60;3.90
702;DHT22;334;48.808;9.222;2022-12-07T00:15:27;7.60;3.70
702;DHT22;334;48.808;9.222;2022-12-07T00:16:31;7.60;3.50
702;DHT22;334;48.808;9.222;2022-12-07T00:17:36;7.60;3.90
702;DHT22;334;48.808;9.222;2022-12-07T00:18:38;7.60;3.60
702;DHT22;334;48.808;9.222;2022-12-07T00:19:40;7.60;3.90
702;DHT22;334;48.808;9.222;2022-12-07T00:20:42;7.60;3.60
702;DHT22;334;48.808;9.222;2022-12-07T00:21:44;7.60;3.90
702;DHT22;334;48.808;9.222;2022-12-07T00:22:46;7.60;3.90
702;DHT22;334;48.808;9.222;2022-12-07T00:23:49;7.70;4.10
702;DHT22;334;48.808;9.222;2022-12-07T00:24:53;7.70;4.10
702;DHT22;334;48.808;9.222;2022-12-07T00:25:54;7.70;3.80
702;DHT22;334;48.808;9.222;2022-12-07T00:26:56;7.70;3.50
702;DHT22;334;48.808;9.222;2022-12-07T00:27:58;7.70;3.50
702;DHT22;334;48.808;9.222;2022-12-07T00:29:03;7.80;3.70
702;DHT22;334;48.808;9.222;2022-12-07T00:30:06;7.80;3.60
702;DHT22;334;48.808;9.222;2022-12-07T00:31:12;7.80;3.10
702;DHT22;334;48.808;9.222;2022-12-07T00:32:14;7.80;3.20
702;DHT22;334;48.808;9.222;2022-12-07T00:33:16;7.80;2.90
702;DHT22;334;48.808;9.222;2022-12-07T00:34:19;7.80;3.00
702;DHT22;334;48.808;9.222;2022-12-07T00:35:22;7.80;2.90
702;DHT22;334;48.808;9.222;2022-12-07T00:36:25;7.80;2.90
702;DHT22;334;48.808;9.222;2022-12-07T00:37:28;7.80;2.90
702;DHT22;334;48.808;9.222;2022-12-07T00:38:31;7.80;2.70
702;DHT22;334;48.808;9.222;2022-12-07T00:39:34;7.80;2.90
702;DHT22;334;48.808;9.222;2022-12-07T00:40:37;7.80;2.90
702;DHT22;334;48.808;9.222;2022-12-07T00:41:39;7.80;2.60
702;DHT22;334;48.808;9.222;2022-12-07T00:42:41;7.90;2.90
702;DHT22;334;48.808;9.222;2022-12-07T00:43:44;7.70;2.30
702;DHT22;334;48.808;9.222;2022-12-07T00:44:46;7.70;2.50
702;DHT22;334;48.808;9.222;2022-12-07T00:45:47;7.70;2.60
702;DHT22;334;48.808;9.222;2022-12-07T00:46:50;7.70;3.10
702;DHT22;334;48.808;9.222;2022-12-07T00:47:52;7.70;3.00
702;DHT22;334;48.808;9.222;2022-12-07T00:48:54;7.70;2.30
702;DHT22;334;48.808;9.222;2022-12-07T00:49:56;7.70;2.50
702;DHT22;334;48.808;9.222;2022-12-07T00:51:00;7.70;2.20
702;DHT22;334;48.808;9.222;2022-12-07T00:52:02;7.70;2.40
702;DHT22;334;48.808;9.222;2022-12-07T00:53:04;7.70;2.40
702;DHT22;334;48.808;9.222;2022-12-07T00:54:06;7.70;2.50
702;DHT22;334;48.808;9.222;2022-12-07T00:55:08;7.70;2.20
702;DHT22;334;48.808;9.222;2022-12-07T00:56:15;7.70;2.60
702;DHT22;334;48.808;9.222;2022-12-07T00:57:17;7.70;2.70
702;DHT22;334;48.808;9.222;2022-12-07T00:58:19;7.80;2.60
702;DHT22;334;48.808;9.222;2022-12-07T00:59:21;7.70;2.50
702;DHT22;334;48.808;9.222;2022-12-07T01:00:23;7.70;2.70
702;DHT22;334;48.808;9.222;2022-12-07T01:01:27;7.70;2.30
702;DHT22;334;48.808;9.222;2022-12-07T01:02:29;7.70;2.50
702;DHT22;334;48.808;9.222;2022-12-07T01:03:32;7.70;2.50
702;DHT22;334;48.808;9.222;2022-12-07T01:04:34;7.80;2.60
702;DHT22;334;48.808;9.222;2022-12-07T01:05:36;7.70;2.30
702;DHT22;334;48.808;9.222;2022-12-07T01:06:38;7.80;2.30
702;DHT22;334;48.808;9.222;2022-12-07T01:07:40;7.80;2.10
702;DHT22;334;48.808;9.222;2022-12-07T01:08:42;7.80;2.30
702;DHT22;334;48.808;9.222;2022-12-07T01:09:44;8.10;2.30
702;DHT22;334;48.808;9.222;2022-12-07T01:10:47;7.80;2.00
702;DHT22;334;48.808;9.222;2022-12-07T01:11:48;7.80;2.00
702;DHT22;334;48.808;9.222;2022-12-07T01:12:51;7.80;2.00
702;DHT22;334;48.808;9.222;2022-12-07T01:13:56;7.80;1.60
702;DHT22;334;48.808;9.222;2022-12-07T01:14:59;7.90;1.50
702;DHT22;334;48.808;9.222;2022-12-07T01:16:03;7.90;1.50
702;DHT22;334;48.808;9.222;2022-12-07T01:17:05;7.90;1.30
702;DHT22;334;48.808;9.222;2022-12-07T01:18:07;7.90;1.20
702;DHT22;334;48.808;9.222;2022-12-07T01:19:09;7.90;1.00
702;DHT22;334;48.808;9.222;2022-12-07T01:20:11;7.90;1.00
702;DHT22;334;48.808;9.222;2022-12-07T01:21:19;7.90;1.30
702;DHT22;334;48.808;9.222;2022-12-07T01:22:22;7.90;1.00
702;DHT22;334;48.808;9.222;2022-12-07T01:23:24;7.90;1.00
702;DHT22;334;48.808;9.222;2022-12-07T01:24:25;7.90;1.00
702;DHT22;334;48.808;9.222;2022-12-07T01:25:27;7.90;1.00
702;DHT22;334;48.808;9.222;2022-12-07T01:26:29;7.90;1.00
702;DHT22;334;48.808;9.222;2022-12-07T01:27:33;7.90;1.00
702;DHT22;334;48.808;9.222;2022-12-07T01:28:35;7.90;1.00
702;DHT22;334;48.808;9.222;2022-12-07T01:29:38;7.90;1.00
702;DHT22;334;48.808;9.222;2022-12-07T01:30:40;7.90;1.00
702;DHT22;334;48.808;9.222;2022-12-07T01:31:42;7.90;1.00
702;DHT22;334;48.808;9.222;2022-12-07T01:32:44;7.90;1.00
702;DHT22;334;48.808;9.222;2022-12-07T01:33:55;7.90;1.00
702;DHT22;334;48.808;9.222;2022-12-07T01:34:57;7.90;1.00
702;DHT22;334;48.808;9.222;2022-12-07T01:36:07;7.90;1.00
702;DHT22;334;48.808;9.222;2022-12-07T01:37:09;7.90;1.00
702;DHT22;334;48.808;9.222;2022-12-07T01:38:11;7.90;1.00
702;DHT22;334;48.808;9.222;2022-12-07T01:39:13;7.90;1.00
702;DHT22;334;48.808;9.222;2022-12-07T01:40:15;7.80;1.00
702;DHT22;334;48.808;9.222;2022-12-07T01:41:17;7.90;1.00
702;DHT22;334;48.808;9.222;2022-12-07T01:42:19;7.80;1.00
702;DHT22;334;48.808;9.222;2022-12-07T01:43:21;7.80;1.00
702;DHT22;334;48.808;9.222;2022-12-07T01:44:26;7.80;1.00
702;DHT22;334;48.808;9.222;2022-12-07T01:45:38;7.80;1.00
702;DHT22;334;48.808;9.222;2022-12-07T01:46:42;7.80;1.00
702;DHT22;334;48.808;9.222;2022-12-07T01:47:55;7.80;1.00
702;DHT22;334;48.808;9.222;2022-12-07T01:48:58;7.80;1.00
702;DHT22;334;48.808;9.222;2022-12-07T01:50:02;7.90;1.00
702;DHT22;334;48.808;9.222;2022-12-07T01:51:11;7.90;1.00
702;DHT22;334;48.808;9.222;2022-12-07T01:52:27;7.80;1.00
702;DHT22;334;48.808;9.222;2022-12-07T01:53:30;7.90;1.00
702;DHT22;334;48.808;9.222;2022-12-07T01:54:33;7.90;1.00
702;DHT22;334;48.808;9.222;2022-12-07T01:55:40;7.80;1.00
702;DHT22;334;48.808;9.222;2022-12-07T01:56:49;7.80;1.00
702;DHT22;334;48.808;9.222;2022-12-07T01:57:53;7.80;1.00
702;DHT22;334;48.808;9.222;2022-12-07T01:58:56;7.80;1.00
702;DHT22;334;48.808;9.222;2022-12-07T01:59:58;7.80;1.00
702;DHT22;334;48.808;9.222;2022-12-07T02:01:01;7.80;1.00
702;DHT22;334;48.808;9.222;2022-12-07T02:02:09;7.80;1.00
702;DHT22;334;48.808;9.222;2022-12-07T02:03:36;7.80;1.00
702;DHT22;334;48.808;9.222;2022-12-07T02:04:39;7.70;1.00
702;DHT22;334;48.808;9.222;2022-12-07T02:05:41;7.70;1.00
702;DHT22;334;48.808;9.222;2022-12-07T02:06:45;7.70;1.00
702;DHT22;334;48.808;9.222;2022-12-07T02:07:49;7.70;1.00
702;DHT22;334;48.808;9.222;2022-12-07T02:08:53;7.70;1.00
702;DHT22;334;48.808;9.222;2022-12-07T02:09:55;7.70;1.00
702;DHT22;334;48.808;9.222;2022-12-07T02:10:58;7.70;1.00
702;DHT22;334;48.808;9.222;2022-12-07T02:12:00;7.60;1.00
702;DHT22;334;48.808;9.222;2022-12-07T02:13:23;7.60;1.00
702;DHT22;334;48.808;9.222;2022-12-07T02:14:26;7.60;1.00
702;DHT22;334;48.808;9.222;2022-12-07T02:15:51;7.60;1.00
702;DHT22;334;48.808;9.222;2022-12-07T02:17:14;7.50;1.00
702;DHT22;334;48.808;9.222;2022-12-07T02:21:06;7.40;1.00
702;DHT22;334;48.808;9.222;2022-12-07T02:22:24;7.40;1.00
702;DHT22;334;48.808;9.222;2022-12-07T02:25:04;7.40;1.30
702;DHT22;334;48.808;9.222;2022-12-07T02:26:44;7.40;1.60
702;DHT22;334;48.808;9.222;2022-12-07T02:28:12;7.40;1.60
702;DHT22;334;48.808;9.222;2022-12-07T02:29:27;7.40;1.40
702;DHT22;334;48.808;9.222;2022-12-07T02:30:35;7.40;1.40
702;DHT22;334;48.808;9.222;2022-12-07T02:32:12;7.40;1.50
702;DHT22;334;48.808;9.222;2022-12-07T02:33:17;7.40;1.40
702;DHT22;334;48.808;9.222;2022-12-07T02:34:48;7.30;1.50
702;DHT22;334;48.808;9.222;2022-12-07T02:36:01;7.30;1.60
702;DHT22;334;48.808;9.222;2022-12-07T02:37:42;7.30;2.00
702;DHT22;334;48.808;9.222;2022-12-07T02:39:37;7.40;2.00
702;DHT22;334;48.808;9.222;2022-12-07T02:41:33;7.40;1.40
702;DHT22;334;48.808;9.222;2022-12-07T02:43:27;7.30;1.80
702;DHT22;334;48.808;9.222;2022-12-07T02:44:47;7.30;2.10
702;DHT22;334;48.808;9.222;2022-12-07T02:46:21;7.30;2.10
702;DHT22;334;48.808;9.222;2022-12-07T02:47:53;7.30;2.20
702;DHT22;334;48.808;9.222;2022-12-07T02:49:16;7.60;1.80
702;DHT22;334;48.808;9.222;2022-12-07T02:50:53;7.40;1.80
702;DHT22;334;48.808;9.222;2022-12-07T02:52:36;7.30;1.90
702;DHT22;334;48.808;9.222;2022-12-07T02:54:19;7.30;1.70
702;DHT22;334;48.808;9.222;2022-12-07T02:55:55;7.30;1.60
702;DHT22;334;48.808;9.222;2022-12-07T02:57:50;7.30;2.00
702;DHT22;334;48.808;9.222;2022-12-07T02:59:59;7.20;2.10
702;DHT22;334;48.808;9.222;2022-12-07T03:03:17;7.20;2.10
702;DHT22;334;48.808;9.222;2022-12-07T03:09:31;7.20;2.30
702;DHT22;334;48.808;9.222;2022-12-07T03:11:29;7.20;2.80
702;DHT22;334;48.808;9.222;2022-12-07T03:15:16;7.10;2.50
702;DHT22;334;48.808;9.222;2022-12-07T03:16:57;7.10;3.00
702;DHT22;334;48.808;9.222;2022-12-07T03:18:46;7.00;3.10
702;DHT22;334;48.808;9.222;2022-12-07T03:20:51;7.00;3.10
702;DHT22;334;48.808;9.222;2022-12-07T03:22:21;7.00;3.00
702;DHT22;334;48.808;9.222;2022-12-07T03:23:39;7.00;3.40
702;DHT22;334;48.808;9.222;2022-12-07T03:25:02;7.00;3.30
702;DHT22;334;48.808;9.222;2022-12-07T03:27:21;7.00;3.30
702;DHT22;334;48.808;9.222;2022-12-07T03:28:55;7.00;3.30
702;DHT22;334;48.808;9.222;2022-12-07T03:30:21;7.20;3.10
702;DHT22;334;48.808;9.222;2022-12-07T03:35:42;6.90;2.90
702;DHT22;334;48.808;9.222;2022-12-07T03:37:07;6.90;3.30
702;DHT22;334;48.808;9.222;2022-12-07T03:38:56;6.80;3.70
702;DHT22;334;48.808;9.222;2022-12-07T03:42:15;6.90;3.80
702;DHT22;334;48.808;9.222;2022-12-07T03:44:22;6.90;3.30
702;DHT22;334;48.808;9.222;2022-12-07T03:46:37;7.00;2.90
702;DHT22;334;48.808;9.222;2022-12-07T03:48:24;6.90;2.90
702;DHT22;334;48.808;9.222;2022-12-07T03:50:28;6.90;2.80
702;DHT22;334;48.808;9.222;2022-12-07T03:54:09;6.90;3.20
702;DHT22;334;48.808;9.222;2022-12-07T03:56:04;6.90;2.90
702;DHT22;334;48.808;9.222;2022-12-07T03:57:29;6.90;2.70
702;DHT22;334;48.808;9.222;2022-12-07T03:58:54;6.90;2.40
702;DHT22;334;48.808;9.222;2022-12-07T04:00:16;6.90;2.60
702;DHT22;334;48.808;9.222;2022-12-07T04:01:35;7.00;2.30
702;DHT22;334;48.808;9.222;2022-12-07T04:02:52;7.00;2.40
702;DHT22;334;48.808;9.222;2022-12-07T04:04:35;7.00;2.10
702;DHT22;334;48.808;9.222;2022-12-07T04:05:53;7.00;2.10
702;DHT22;334;48.808;9.222;2022-12-07T04:07:10;7.00;2.10
702;DHT22;334;48.808;9.222;2022-12-07T04:09:03;7.10;1.90
702;DHT22;334;48.808;9.222;2022-12-07T04:10:40;7.10;1.80
702;DHT22;334;48.808;9.222;2022-12-07T04:12:41;7.10;1.80
702;DHT22;334;48.808;9.222;2022-12-07T04:14:05;7.10;1.00
702;DHT22;334;48.808;9.222;2022-12-07T04:16:23;7.10;1.00
702;DHT22;334;48.808;9.222;2022-12-07T04:19:05;7.20;1.40
702;DHT22;334;48.808;9.222;2022-12-07T04:21:22;7.20;2.00
702;DHT22;334;48.808;9.222;2022-12-07T04:23:31;7.20;1.70
702;DHT22;334;48.808;9.222;2022-12-07T04:24:51;7.20;1.40
702;DHT22;334;48.808;9.222;2022-12-07T04:26:16;7.20;1.40
702;DHT22;334;48.808;9.222;2022-12-07T04:27:35;7.10;1.30
702;DHT22;334;48.808;9.222;2022-12-07T04:29:19;7.10;1.30
702;DHT22;334;48.808;9.222;2022-12-07T04:31:08;7.10;1.30
702;DHT22;334;48.808;9.222;2022-12-07T04:32:51;7.10;1.70
702;DHT22;334;48.808;9.222;2022-12-07T04:34:51;7.10;1.80
702;DHT22;334;48.808;9.222;2022-12-07T04:36:28;7.20;1.70
702;DHT22;334;48.808;9.222;2022-12-07T04:38:11;7.10;1.50
702;DHT22;334;48.808;9.222;2022-12-07T04:39:54;7.10;1.00
702;DHT22;334;48.808;9.222;2022-12-07T04:41:51;7.10;1.00
702;DHT22;334;48.808;9.222;2022-12-07T04:43:35;7.00;1.00
702;DHT22;334;48.808;9.222;2022-12-07T04:46:00;7.00;1.00
702;DHT22;334;48.808;9.222;2022-12-07T04:47:19;7.00;1.00
702;DHT22;334;48.808;9.222;2022-12-07T04:48:46;6.90;1.00
702;DHT22;334;48.808;9.222;2022-12-07T04:50:04;6.90;1.00
702;DHT22;334;48.808;9.222;2022-12-07T04:51:31;6.80;1.00
702;DHT22;334;48.808;9.222;2022-12-07T04:53:17;6.80;1.00
702;DHT22;334;48.808;9.222;2022-12-07T04:55:05;6.70;1.00
702;DHT22;334;48.808;9.222;2022-12-07T04:56:35;6.70;1.00
702;DHT22;334;48.808;9.222;2022-12-07T04:58:09;6.70;1.00
702;DHT22;334;48.808;9.222;2022-12-07T04:59:26;6.70;1.00
702;DHT22;334;48.808;9.222;2022-12-07T05:00:45;6.70;1.00
702;DHT22;334;48.808;9.222;2022-12-07T05:02:35;6.70;1.00
702;DHT22;334;48.808;9.222;2022-12-07T05:04:12;6.80;1.00
702;DHT22;334;48.808;9.222;2022-12-07T05:05:59;6.80;1.00
702;DHT22;334;48.808;9.222;2022-12-07T05:08:06;6.70;1.00
702;DHT22;334;48.808;9.222;2022-12-07T05:10:10;6.80;1.00
702;DHT22;334;48.808;9.222;2022-12-07T05:11:53;6.80;1.00
702;DHT22;334;48.808;9.222;2022-12-07T05:13:10;6.80;1.00
702;DHT22;334;48.808;9.222;2022-12-07T05:14:52;6.90;1.00
702;DHT22;334;48.808;9.222;2022-12-07T05:16:45;6.90;1.00
702;DHT22;334;48.808;9.222;2022-12-07T05:18:44;7.00;1.00
702;DHT22;334;48.808;9.222;2022-12-07T05:20:00;7.00;1.00
702;DHT22;334;48.808;9.222;2022-12-07T05:21:39;7.10;1.00
702;DHT22;334;48.808;9.222;2022-12-07T05:23:08;7.10;1.00
702;DHT22;334;48.808;9.222;2022-12-07T05:24:45;7.10;1.00
702;DHT22;334;48.808;9.222;2022-12-07T05:26:26;7.30;1.00
702;DHT22;334;48.808;9.222;2022-12-07T05:28:09;7.10;1.00
702;DHT22;334;48.808;9.222;2022-12-07T05:29:49;7.10;1.00
702;DHT22;334;48.808;9.222;2022-12-07T05:31:33;7.10;1.00
702;DHT22;334;48.808;9.222;2022-12-07T05:32:58;7.10;1.00
702;DHT22;334;48.808;9.222;2022-12-07T05:34:56;7.20;1.00
702;DHT22;334;48.808;9.222;2022-12-07T05:36:32;7.00;1.00
702;DHT22;334;48.808;9.222;2022-12-07T05:37:56;7.00;1.00
702;DHT22;334;48.808;9.222;2022-12-07T05:40:21;7.00;1.00
702;DHT22;334;48.808;9.222;2022-12-07T05:42:20;7.00;1.00
702;DHT22;334;48.808;9.222;2022-12-07T05:44:04;7.00;1.00
702;DHT22;334;48.808;9.222;2022-12-07T05:45:48;6.90;1.00
702;DHT22;334;48.808;9.222;2022-12-07T05:47:33;6.90;1.00
702;DHT22;334;48.808;9.222;2022-12-07T05:49:30;6.90;1.00
702;DHT22;334;48.808;9.222;2022-12-07T05:51:00;6.90;1.00
702;DHT22;334;48.808;9.222;2022-12-07T05:52:30;7.00;1.00
702;DHT22;334;48.808;9.222;2022-12-07T05:54:05;7.00;1.00
702;DHT22;334;48.808;9.222;2022-12-07T05:55:48;7.00;1.00
702;DHT22;334;48.808;9.222;2022-12-07T05:57:06;7.00;1.00
702;DHT22;334;48.808;9.222;2022-12-07T05:58:37;7.00;1.00
702;DHT22;334;48.808;9.222;2022-12-07T05:59:58;7.00;1.00
702;DHT22;334;48.808;9.222;2022-12-07T06:01:01;7.00;1.00
702;DHT22;334;48.808;9.222;2022-12-07T06:02:06;7.00;1.00
702;DHT22;334;48.808;9.222;2022-12-07T06:03:08;7.00;1.00
702;DHT22;334;48.808;9.222;2022-12-07T06:04:10;7.00;1.00
702;DHT22;334;48.808;9.222;2022-12-07T06:05:12;7.00;1.00
702;DHT22;334;48.808;9.222;2022-12-07T06:06:14;7.00;1.00
702;DHT22;334;48.808;9.222;2022-12-07T06:07:17;7.00;1.00
702;DHT22;334;48.808;9.222;2022-12-07T06:08:19;7.10;1.00
702;DHT22;334;48.808;9.222;2022-12-07T06:09:22;7.00;1.00
702;DHT22;334;48.808;9.222;2022-12-07T06:10:24;7.10;1.00
702;DHT22;334;48.808;9.222;2022-12-07T06:11:26;7.10;1.00
702;DHT22;334;48.808;9.222;2022-12-07T06:12:50;7.10;1.00
702;DHT22;334;48.808;9.222;2022-12-07T06:13:52;7.10;1.00
702;DHT22;334;48.808;9.222;2022-12-07T06:14:54;7.10;1.00
702;DHT22;334;48.808;9.222;2022-12-07T06:15:56;7.20;1.00
702;DHT22;334;48.808;9.222;2022-12-07T06:16:58;7.20;1.00
702;DHT22;334;48.808;9.222;2022-12-07T06:18:00;7.20;1.00
702;DHT22;334;48.808;9.222;2022-12-07T06:19:02;7.20;1.00
702;DHT22;334;48.808;9.222;2022-12-07T06:20:05;7.20;1.00
702;DHT22;334;48.808;9.222;2022-12-07T06:21:08;7.20;1.00
702;DHT22;334;48.808;9.222;2022-12-07T06:22:11;7.10;1.00
702;DHT22;334;48.808;9.222;2022-12-07T06:23:13;7.10;1.00
702;DHT22;334;48.808;9.222;2022-12-07T06:24:16;7.00;1.00
702;DHT22;334;48.808;9.222;2022-12-07T06:25:18;7.00;1.00
702;DHT22;334;48.808;9.222;2022-12-07T06:26:20;7.00;1.00
702;DHT22;334;48.808;9.222;2022-12-07T06:27:22;7.10;1.00
702;DHT22;334;48.808;9.222;2022-12-07T06:28:24;7.10;1.00
702;DHT22;334;48.808;9.222;2022-12-07T06:29:27;7.10;1.00
702;DHT22;334;48.808;9.222;2022-12-07T06:30:29;7.10;1.00
702;DHT22;334;48.808;9.222;2022-12-07T06:31:30;7.10;1.00
702;DHT22;334;48.808;9.222;2022-12-07T06:32:33;7.20;1.00
702;DHT22;334;48.808;9.222;2022-12-07T06:33:35;7.20;1.00
702;DHT22;334;48.808;9.222;2022-12-07T06:34:37;7.20;1.00
702;DHT22;334;48.808;9.222;2022-12-07T06:35:40;7.20;1.00
702;DHT22;334;48.808;9.222;2022-12-07T06:36:42;7.20;1.00
702;DHT22;334;48.808;9.222;2022-12-07T06:37:44;7.10;1.00
702;DHT22;334;48.808;9.222;2022-12-07T06:38:46;7.10;1.00
702;DHT22;334;48.808;9.222;2022-12-07T06:39:48;7.10;1.00
702;DHT22;334;48.808;9.222;2022-12-07T06:40:49;7.10;1.00
702;DHT22;334;48.808;9.222;2022-12-07T06:41:51;7.10;1.00
702;DHT22;334;48.808;9.222;2022-12-07T06:42:53;7.10;1.00
702;DHT22;334;48.808;9.222;2022-12-07T06:43:55;7.10;1.00
702;DHT22;334;48.808;9.222;2022-12-07T06:44:57;7.10;1.00
702;DHT22;334;48.808;9.222;2022-12-07T06:45:59;7.10;1.00
702;DHT22;334;48.808;9.222;2022-12-07T06:47:00;7.10;1.00
702;DHT22;334;48.808;9.222;2022-12-07T06:48:24;7.10;1.00
702;DHT22;334;48.808;9.222;2022-12-07T06:49:25;7.10;1.00
702;DHT22;334;48.808;9.222;2022-12-07T06:50:27;7.10;1.00
702;DHT22;334;48.808;9.222;2022-12-07T06:51:30;7.10;1.00
702;DHT22;334;48.808;9.222;2022-12-07T06:52:32;6.90;1.00
702;DHT22;334;48.808;9.222;2022-12-07T06:53:34;7.20;1.00
702;DHT22;334;48.808;9.222;2022-12-07T06:54:35;7.20;1.00
702;DHT22;334;48.808;9.222;2022-12-07T06:55:37;7.20;1.00
702;DHT22;334;48.808;9.222;2022-12-07T06:56:39;7.20;1.00
702;DHT22;334;48.808;9.222;2022-12-07T06:57:42;7.30;1.00
702;DHT22;334;48.808;9.222;2022-12-07T06:58:44;7.30;1.00
702;DHT22;334;48.808;9.222;2022-12-07T06:59:46;7.30;1.00
702;DHT22;334;48.808;9.222;2022-12-07T07:00:48;7.30;1.00
702;DHT22;334;48.808;9.222;2022-12-07T07:01:51;7.30;1.00
702;DHT22;334;48.808;9.222;2022-12-07T07:02:54;7.20;1.00
702;DHT22;334;48.808;9.222;2022-12-07T07:03:56;7.20;1.00
702;DHT22;334;48.808;9.222;2022-12-07T07:04:58;7.20;1.00
702;DHT22;334;48.808;9.222;2022-12-07T07:06:00;7.20;1.00
702;DHT22;334;48.808;9.222;2022-12-07T07:07:01;7.20;1.00
702;DHT22;334;48.808;9.222;2022-12-07T07:08:04;7.40;1.00
702;DHT22;334;48.808;9.222;2022-12-07T07:09:24;7.30;1.00
702;DHT22;334;48.808;9.222;2022-12-07T07:10:25;7.30;1.00
702;DHT22;334;48.808;9.222;2022-12-07T07:11:30;7.30;1.00
702;DHT22;334;48.808;9.222;2022-12-07T07:12:32;7.30;1.00
702;DHT22;334;48.808;9.222;2022-12-07T07:13:33;7.30;1.00
702;DHT22;334;48.808;9.222;2022-12-07T07:14:37;7.30;1.00
702;DHT22;334;48.808;9.222;2022-12-07T07:15:39;7.30;1.00
702;DHT22;334;48.808;9.222;2022-12-07T07:16:41;7.30;1.00
702;DHT22;334;48.808;9.222;2022-12-07T07:17:43;7.30;1.00
702;DHT22;334;48.808;9.222;2022-12-07T07:18:45;7.30;1.00
702;DHT22;334;48.808;9.222;2022-12-07T07:19:46;7.30;1.00
702;DHT22;334;48.808;9.222;2022-12-07T07:20:49;7.30;1.00
702;DHT22;334;48.808;9.222;2022-12-07T07:21:51;7.30;1.00
702;DHT22;334;48.808;9.222;2022-12-07T07:22:57;7.30;1.00
702;DHT22;334;48.808;9.222;2022-12-07T07:23:59;7.30;1.00
702;DHT22;334;48.808;9.222;2022-12-07T07:25:00;7.30;1.00
702;DHT22;334;48.808;9.222;2022-12-07T07:26:03;7.30;1.00
702;DHT22;334;48.808;9.222;2022-12-07T07:27:04;7.30;1.00
702;DHT22;334;48.808;9.222;2022-12-07T07:28:06;7.20;1.00
702;DHT22;334;48.808;9.222;2022-12-07T07:29:08;7.20;1.00
702;DHT22;334;48.808;9.222;2022-12-07T07:30:10;7.30;1.00
702;DHT22;334;48.808;9.222;2022-12-07T07:31:12;7.20;1.00
702;DHT22;334;48.808;9.222;2022-12-07T07:32:14;7.20;1.00
702;DHT22;334;48.808;9.222;2022-12-07T07:33:16;7.20;1.00
702;DHT22;334;48.808;9.222;2022-12-07T07:34:18;7.20;1.00
702;DHT22;334;48.808;9.222;2022-12-07T07:35:20;7.20;1.00
702;DHT22;334;48.808;9.222;2022-12-07T07:36:22;7.20;1.00
702;DHT22;334;48.808;9.222;2022-12-07T07:37:24;7.20;1.00
702;DHT22;334;48.808;9.222;2022-12-07T07:38:26;7.20;1.00
702;DHT22;334;48.808;9.222;2022-12-07T07:39:27;7.20;1.00
702;DHT22;334;48.808;9.222;2022-12-07T07:40:30;7.20;1.00
702;DHT22;334;48.808;9.222;2022-12-07T07:41:32;7.20;1.00
702;DHT22;334;48.808;9.222;2022-12-07T07:42:34;7.10;1.00
702;DHT22;334;48.808;9.222;2022-12-07T07:43:35;7.10;1.00
702;DHT22;334;48.808;9.222;2022-12-07T07:44:37;7.10;1.00
702;DHT22;334;48.808;9.222;2022-12-07T07:45:39;7.10;1.00
702;DHT22;334;48.808;9.222;2022-12-07T07:46:42;7.20;1.00
702;DHT22;334;48.808;9.222;2022-12-07T07:47:44;7.10;1.00
702;DHT22;334;48.808;9.222;2022-12-07T07:48:46;7.00;1.00
702;DHT22;334;48.808;9.222;2022-12-07T07:49:47;7.00;1.00
702;DHT22;334;48.808;9.222;2022-12-07T07:50:49;7.00;1.00
702;DHT22;334;48.808;9.222;2022-12-07T07:51:51;7.00;1.00
702;DHT22;334;48.808;9.222;2022-12-07T07:52:53;7.00;1.00
702;DHT22;334;48.808;9.222;2022-12-07T07:53:56;7.00;1.00
702;DHT22;334;48.808;9.222;2022-12-07T07:54:58;7.00;1.00
702;DHT22;334;48.808;9.222;2022-12-07T07:56:00;7.00;1.00
702;DHT22;334;48.808;9.222;2022-12-07T07:57:02;7.00;1.00
702;DHT22;334;48.808;9.222;2022-12-07T07:58:04;7.00;1.00
702;DHT22;334;48.808;9.222;2022-12-07T07:59:06;7.00;1.00
702;DHT22;334;48.808;9.222;2022-12-07T08:00:10;7.00;1.00
702;DHT22;334;48.808;9.222;2022-12-07T08:01:13;6.90;1.00
702;DHT22;334;48.808;9.222;2022-12-07T08:02:18;7.00;1.00
702;DHT22;334;48.808;9.222;2022-12-07T08:03:20;7.00;1.00
702;DHT22;334;48.808;9.222;2022-12-07T08:04:22;7.00;1.00
702;DHT22;334;48.808;9.222;2022-12-07T08:05:24;7.00;1.00
702;DHT22;334;48.808;9.222;2022-12-07T08:06:26;7.10;1.00
702;DHT22;334;48.808;9.222;2022-12-07T08:07:33;7.00;1.00
702;DHT22;334;48.808;9.222;2022-12-07T08:08:35;7.00;1.00
702;DHT22;334;48.808;9.222;2022-12-07T08:09:37;7.00;1.00
702;DHT22;334;48.808;9.222;2022-12-07T08:10:39;7.00;1.00
702;DHT22;334;48.808;9.222;2022-12-07T08:11:42;7.00;1.00
702;DHT22;334;48.808;9.222;2022-12-07T08:12:44;7.00;1.00
702;DHT22;334;48.808;9.222;2022-12-07T08:14:05;7.10;1.00
702;DHT22;334;48.808;9.222;2022-12-07T08:15:08;7.10;1.00
702;DHT22;334;48.808;9.222;2022-12-07T08:16:10;7.10;1.00
702;DHT22;334;48.808;9.222;2022-12-07T08:17:13;7.10;1.00
702;DHT22;334;48.808;9.222;2022-12-07T08:18:15;7.10;1.00
702;DHT22;334;48.808;9.222;2022-12-07T08:19:16;7.10;1.00
702;DHT22;334;48.808;9.222;2022-12-07T08:20:18;7.10;1.00
702;DHT22;334;48.808;9.222;2022-12-07T08:21:20;7.20;1.00
702;DHT22;334;48.808;9.222;2022-12-07T08:22:22;7.30;1.00
702;DHT22;334;48.808;9.222;2022-12-07T08:23:24;7.20;1.00
702;DHT22;334;48.808;9.222;2022-12-07T08:24:37;7.20;1.00
702;DHT22;334;48.808;9.222;2022-12-07T08:25:39;7.20;1.00
702;DHT22;334;48.808;9.222;2022-12-07T08:26:42;7.30;1.00
702;DHT22;334;48.808;9.222;2022-12-07T08:27:44;7.30;1.00
702;DHT22;334;48.808;9.222;2022-12-07T08:28:46;7.30;1.00
702;DHT22;334;48.808;9.222;2022-12-07T08:29:48;7.30;1.00
702;DHT22;334;48.808;9.222;2022-12-07T08:30:50;7.30;1.00
702;DHT22;334;48.808;9.222;2022-12-07T08:31:56;7.30;1.00
702;DHT22;334;48.808;9.222;2022-12-07T08:33:03;7.30;1.00
702;DHT22;334;48.808;9.222;2022-12-07T08:34:07;7.30;1.00
702;DHT22;334;48.808;9.222;2022-12-07T08:35:09;7.30;1.00
702;DHT22;334;48.808;9.222;2022-12-07T08:36:12;7.30;1.00
702;DHT22;334;48.808;9.222;2022-12-07T08:37:15;7.30;1.00
702;DHT22;334;48.808;9.222;2022-12-07T08:38:18;7.30;1.00
702;DHT22;334;48.808;9.222;2022-12-07T08:39:20;7.30;1.00
702;DHT22;334;48.808;9.222;2022-12-07T08:40:33;7.30;1.00
702;DHT22;334;48.808;9.222;2022-12-07T08:41:35;7.40;1.00
702;DHT22;334;48.808;9.222;2022-12-07T08:42:39;7.30;1.00
702;DHT22;334;48.808;9.222;2022-12-07T08:43:42;7.40;1.00
702;DHT22;334;48.808;9.222;2022-12-07T08:44:45;7.40;1.00
702;DHT22;334;48.808;9.222;2022-12-07T08:45:52;7.40;1.00
702;DHT22;334;48.808;9.222;2022-12-07T08:47:02;7.40;1.00
702;DHT22;334;48.808;9.222;2022-12-07T08:48:09;7.40;1.00
702;DHT22;334;48.808;9.222;2022-12-07T08:50:16;7.40;1.00
702;DHT22;334;48.808;9.222;2022-12-07T08:51:20;7.30;1.00
702;DHT22;334;48.808;9.222;2022-12-07T08:52:23;7.30;1.00
702;DHT22;334;48.808;9.222;2022-12-07T08:53:24;7.40;1.00
702;DHT22;334;48.808;9.222;2022-12-07T08:54:27;7.40;1.00
702;DHT22;334;48.808;9.222;2022-12-07T08:55:30;7.40;1.00
702;DHT22;334;48.808;9.222;2022-12-07T08:56:34;7.40;1.00
702;DHT22;334;48.808;9.222;2022-12-07T08:57:36;7.40;1.00